Time;durP1;ratioP1;P1;durP2;ratioP2;P2;SDS_P1;SDS_P2;PMS_P1;PMS_P2;Temp;Humidity;BMP_temperature;BMP_pressure;BME280_temperature;BME280_humidity;BME280_pressure;Samples;Min_cycle;Max_cycle;Signal;HPM_P1;HPM_P2
2022/11/22 00:00:27;;;;;;;;;;;18.70;64.10;;;;;;5039561;28;900;-69
2022/11/22 00:02:52;;;;;;;;;;;18.60;64.10;;;;;;5042324;28;1381;-69
2022/11/22 00:05:18;;;;;;;;;;;18.60;64.10;;;;;;5041720;28;1226;-69
2022/11/22 00:07:43;;;;;;;;;;;18.60;64.10;;;;;;5038436;28;1288;-69
2022/11/22 00:10:09;;;;;;;;;;;18.60;64.20;;;;;;5031279;28;1912;-69
2022/11/22 00:12:35;;;;;;;;;;;18.60;64.20;;;;;;5040022;28;1002;-69
2022/11/22 00:15:00;;;;;;;;;;;18.60;64.20;;;;;;5024451;28;1438;-69
2022/11/22 00:17:26;;;;;;;;;;;18.60;64.20;;;;;;5039383;28;1173;-69
2022/11/22 00:19:51;;;;;;;;;;;18.60;64.30;;;;;;5038126;28;1042;-69
2022/11/22 00:22:17;;;;;;;;;;;18.60;64.30;;;;;;5039723;28;859;-69
2022/11/22 00:24:45;;;;;;;;;;;18.60;64.20;;;;;;5038849;28;1104;-70
2022/11/22 00:27:10;;;;;;;;;;;18.60;64.30;;;;;;5036113;28;1313;-69
2022/11/22 00:29:36;;;;;;;;;;;18.60;64.30;;;;;;5040877;28;1906;-70
2022/11/22 00:32:01;;;;;;;;;;;18.60;64.40;;;;;;5040533;28;931;-69
2022/11/22 00:34:27;;;;;;;;;;;18.60;64.30;;;;;;5041732;28;1165;-69
2022/11/22 00:36:52;;;;;;;;;;;18.60;64.40;;;;;;5040047;28;1280;-69
2022/11/22 00:39:17;;;;;;;;;;;18.50;64.30;;;;;;5022449;28;1101;-69
2022/11/22 00:41:43;;;;;;;;;;;18.60;64.40;;;;;;5036188;28;1053;-69
2022/11/22 00:44:08;;;;;;;;;;;18.60;64.40;;;;;;5037628;28;811;-69
2022/11/22 00:46:34;;;;;;;;;;;18.50;64.30;;;;;;5040083;28;879;-70
2022/11/22 00:48:59;;;;;;;;;;;18.50;64.30;;;;;;5039133;28;1256;-69
2022/11/22 00:51:25;;;;;;;;;;;18.60;64.40;;;;;;5039013;28;1898;-69
2022/11/22 00:53:50;;;;;;;;;;;18.60;64.50;;;;;;5039243;28;963;-69
2022/11/22 00:56:16;;;;;;;;;;;18.50;65.10;;;;;;5037091;28;839;-69
2022/11/22 00:58:41;;;;;;;;;;;18.50;64.40;;;;;;5042329;28;1268;-69
2022/11/22 01:01:07;;;;;;;;;;;18.50;64.40;;;;;;5039058;28;879;-69
2022/11/22 01:03:32;;;;;;;;;;;18.50;64.40;;;;;;5041618;28;881;-69
2022/11/22 01:05:58;;;;;;;;;;;18.50;64.40;;;;;;5038408;28;1069;-69
2022/11/22 01:08:23;;;;;;;;;;;18.60;64.50;;;;;;5040279;28;1284;-69
2022/11/22 01:10:53;;;;;;;;;;;18.50;64.40;;;;;;5040294;28;1902;-69
2022/11/22 01:13:19;;;;;;;;;;;18.50;64.40;;;;;;5039760;28;823;-69
2022/11/22 01:15:44;;;;;;;;;;;18.50;64.40;;;;;;5037995;28;1117;-69
2022/11/22 01:18:10;;;;;;;;;;;18.60;64.40;;;;;;5038231;28;1268;-69
2022/11/22 01:20:35;;;;;;;;;;;18.50;64.30;;;;;;5040338;28;1404;-69
2022/11/22 01:23:00;;;;;;;;;;;18.60;64.40;;;;;;5038239;28;805;-69
2022/11/22 01:25:26;;;;;;;;;;;18.60;64.40;;;;;;5034885;28;891;-69
2022/11/22 01:27:51;;;;;;;;;;;18.60;64.40;;;;;;5038421;28;1456;-69
2022/11/22 01:30:17;;;;;;;;;;;18.60;64.40;;;;;;5036776;28;1922;-69
2022/11/22 01:32:43;;;;;;;;;;;18.50;64.30;;;;;;5022919;28;841;-69
2022/11/22 01:35:09;;;;;;;;;;;18.60;64.30;;;;;;5037949;28;941;-69
2022/11/22 01:37:34;;;;;;;;;;;18.60;64.40;;;;;;5038843;28;1349;-69
2022/11/22 01:40:00;;;;;;;;;;;18.60;64.30;;;;;;5037369;28;921;-69
2022/11/22 01:42:38;;;;;;;;;;;18.60;64.30;;;;;;5038125;28;888;-69
2022/11/22 01:45:42;;;;;;;;;;;18.60;64.30;;;;;;5026594;28;1339;-69
2022/11/22 01:48:10;;;;;;;;;;;18.60;64.30;;;;;;4965828;28;1292;-69
2022/11/22 01:50:36;;;;;;;;;;;18.60;64.20;;;;;;4966562;28;2073;-70
2022/11/22 01:53:02;;;;;;;;;;;18.60;64.20;;;;;;4986169;28;1473;-69
2022/11/22 01:55:28;;;;;;;;;;;18.60;64.20;;;;;;5037546;28;855;-69
2022/11/22 01:57:53;;;;;;;;;;;18.60;64.20;;;;;;5019908;28;1261;-69
2022/11/22 02:00:19;;;;;;;;;;;18.60;64.20;;;;;;5038251;28;1010;-69
2022/11/22 02:02:45;;;;;;;;;;;18.60;64.20;;;;;;5040428;28;1286;-69
2022/11/22 02:05:11;;;;;;;;;;;18.60;64.30;;;;;;5037852;28;1431;-69
2022/11/22 02:07:37;;;;;;;;;;;18.60;64.20;;;;;;5036050;28;1224;-69
2022/11/22 02:10:02;;;;;;;;;;;18.60;64.20;;;;;;5036367;28;1901;-69
2022/11/22 02:12:28;;;;;;;;;;;18.60;64.20;;;;;;5022047;28;843;-69
2022/11/22 02:14:53;;;;;;;;;;;18.60;64.20;;;;;;5040617;28;966;-69
2022/11/22 02:17:19;;;;;;;;;;;18.60;64.20;;;;;;5021577;28;1237;-70
2022/11/22 02:19:45;;;;;;;;;;;18.60;64.20;;;;;;5038922;28;892;-69
2022/11/22 02:22:19;;;;;;;;;;;18.60;64.20;;;;;;5037487;28;951;-69
2022/11/22 02:24:47;;;;;;;;;;;18.60;64.30;;;;;;5038661;28;991;-69
2022/11/22 02:27:12;;;;;;;;;;;18.60;64.30;;;;;;5042739;28;1330;-70
2022/11/22 02:29:38;;;;;;;;;;;18.60;64.30;;;;;;5022625;28;1910;-69
2022/11/22 02:32:03;;;;;;;;;;;18.60;64.30;;;;;;5037654;28;816;-69
2022/11/22 02:34:29;;;;;;;;;;;18.60;64.30;;;;;;5040399;28;1073;-69
2022/11/22 02:36:54;;;;;;;;;;;18.60;64.30;;;;;;5042330;28;1335;-69
2022/11/22 02:39:21;;;;;;;;;;;18.60;64.30;;;;;;5025145;28;836;-69
2022/11/22 02:41:47;;;;;;;;;;;18.60;64.30;;;;;;5045169;28;1292;-68
2022/11/22 02:44:12;;;;;;;;;;;18.60;64.30;;;;;;5040056;28;1280;-70
2022/11/22 02:46:47;;;;;;;;;;;18.60;64.40;;;;;;5040184;28;1525;-69
2022/11/22 02:49:14;;;;;;;;;;;18.60;64.40;;;;;;5045772;28;1338;-70
2022/11/22 02:51:40;;;;;;;;;;;18.60;64.40;;;;;;5041655;28;1956;-70
2022/11/22 02:54:05;;;;;;;;;;;18.60;64.40;;;;;;5046265;28;1291;-70
2022/11/22 02:56:31;;;;;;;;;;;18.60;64.40;;;;;;5044980;28;1378;-69
2022/11/22 02:58:56;;;;;;;;;;;18.60;64.40;;;;;;5045591;28;1515;-69
2022/11/22 03:01:21;;;;;;;;;;;18.60;64.40;;;;;;5043846;28;1284;-68
2022/11/22 03:03:47;;;;;;;;;;;18.60;64.40;;;;;;5045589;28;1368;-70
2022/11/22 03:06:12;;;;;;;;;;;18.60;64.40;;;;;;5043370;28;1670;-70
2022/11/22 03:08:38;;;;;;;;;;;18.60;64.40;;;;;;5039018;28;1423;-69
2022/11/22 03:11:03;;;;;;;;;;;18.60;64.40;;;;;;5040647;28;1903;-69
2022/11/22 03:13:29;;;;;;;;;;;18.60;65.20;;;;;;5036870;28;1350;-68
2022/11/22 03:15:54;;;;;;;;;;;18.60;64.40;;;;;;5040183;28;1273;-68
2022/11/22 03:18:20;;;;;;;;;;;18.60;64.30;;;;;;5042905;28;1510;-70
2022/11/22 03:20:45;;;;;;;;;;;18.60;64.30;;;;;;5041484;28;1348;-70
2022/11/22 03:23:11;;;;;;;;;;;18.60;64.40;;;;;;5043239;28;1700;-69
2022/11/22 03:25:36;;;;;;;;;;;18.60;64.40;;;;;;5041057;28;812;-70
2022/11/22 03:28:02;;;;;;;;;;;18.60;64.40;;;;;;5038998;28;1367;-70
2022/11/22 03:30:27;;;;;;;;;;;18.60;65.10;;;;;;5041721;28;1914;-69
2022/11/22 03:32:53;;;;;;;;;;;18.60;64.40;;;;;;5039347;28;867;-70
2022/11/22 03:35:18;;;;;;;;;;;18.60;64.40;;;;;;5036500;28;1437;-70
2022/11/22 03:37:44;;;;;;;;;;;18.60;64.40;;;;;;5038402;28;1798;-70
2022/11/22 03:40:09;;;;;;;;;;;18.60;64.40;;;;;;5041225;28;863;-70
2022/11/22 03:42:35;;;;;;;;;;;18.60;64.40;;;;;;5037791;28;939;-70
2022/11/22 03:45:00;;;;;;;;;;;18.60;64.40;;;;;;5022912;28;947;-69
2022/11/22 03:47:26;;;;;;;;;;;18.50;64.30;;;;;;5037585;28;1260;-70
2022/11/22 03:49:51;;;;;;;;;;;18.60;64.50;;;;;;5039917;28;1953;-69
2022/11/22 03:52:16;;;;;;;;;;;18.50;64.40;;;;;;5039840;28;813;-69
2022/11/22 03:54:42;;;;;;;;;;;18.60;64.50;;;;;;5038606;28;879;-69
2022/11/22 03:57:07;;;;;;;;;;;18.50;64.50;;;;;;5036806;28;1320;-69
2022/11/22 03:59:33;;;;;;;;;;;18.50;64.40;;;;;;5033908;28;1014;-69
2022/11/22 04:01:58;;;;;;;;;;;18.50;64.40;;;;;;5041764;28;1521;-69
2022/11/22 04:04:24;;;;;;;;;;;18.60;64.50;;;;;;5040538;28;794;-69
2022/11/22 04:06:49;;;;;;;;;;;18.50;64.50;;;;;;5042417;28;1221;-68
2022/11/22 04:09:15;;;;;;;;;;;18.50;64.50;;;;;;5043290;28;804;-69
2022/11/22 04:11:40;;;;;;;;;;;18.50;64.50;;;;;;5039579;28;1953;-68
2022/11/22 04:16:50;;;;;;;;;;;18.50;64.50;;;;;;5041556;28;1249;-69
2022/11/22 04:19:15;;;;;;;;;;;18.50;64.50;;;;;;5039236;28;961;-69
2022/11/22 04:21:41;;;;;;;;;;;18.50;64.50;;;;;;5030895;28;932;-69
2022/11/22 04:26:53;;;;;;;;;;;18.50;64.50;;;;;;5039903;28;1319;-68
2022/11/22 04:29:19;;;;;;;;;;;18.50;64.50;;;;;;5042782;28;1228;-68
2022/11/22 04:34:28;;;;;;;;;;;18.50;64.40;;;;;;5038877;28;886;-69
2022/11/22 04:36:54;;;;;;;;;;;18.60;64.50;;;;;;5021309;28;1339;-69
2022/11/22 04:39:19;;;;;;;;;;;18.50;64.40;;;;;;5038958;28;942;-69
2022/11/22 04:41:45;;;;;;;;;;;18.60;64.50;;;;;;5040716;28;856;-68
2022/11/22 04:46:54;;;;;;;;;;;18.60;64.40;;;;;;5041110;28;1241;-69
2022/11/22 04:49:20;;;;;;;;;;;18.50;64.40;;;;;;5039478;28;859;-69
2022/11/22 04:54:29;;;;;;;;;;;18.50;64.40;;;;;;5038157;28;806;-69
2022/11/22 04:56:55;;;;;;;;;;;18.60;64.50;;;;;;5037608;28;1315;-69
2022/11/22 04:59:20;;;;;;;;;;;18.50;64.40;;;;;;5038816;28;962;-69
2022/11/22 05:01:46;;;;;;;;;;;18.50;64.40;;;;;;5038938;28;821;-69
2022/11/22 05:04:11;;;;;;;;;;;18.50;65.20;;;;;;5039068;28;1360;-69
2022/11/22 05:06:36;;;;;;;;;;;18.50;64.40;;;;;;5037160;28;880;-69
2022/11/22 05:09:02;;;;;;;;;;;18.50;64.40;;;;;;5038719;28;1391;-69
2022/11/22 05:11:28;;;;;;;;;;;18.50;64.40;;;;;;5037949;28;1910;-68
2022/11/22 05:13:53;;;;;;;;;;;18.50;64.40;;;;;;5040149;28;1689;-69
2022/11/22 05:16:18;;;;;;;;;;;18.60;64.40;;;;;;5038785;28;1014;-69
2022/11/22 05:18:57;;;;;;;;;;;18.60;64.40;;;;;;5038218;28;1284;-69
2022/11/22 05:21:23;;;;;;;;;;;18.60;64.40;;;;;;5042683;28;903;-69
2022/11/22 05:23:55;;;;;;;;;;;18.60;64.20;;;;;;5040611;28;916;-68
2022/11/22 05:26:21;;;;;;;;;;;18.70;64.20;;;;;;5029178;28;1917;-68
2022/11/22 05:28:46;;;;;;;;;;;18.70;64.10;;;;;;5037716;28;1323;-67
2022/11/22 05:31:16;;;;;;;;;;;18.70;64.10;;;;;;5020658;28;1914;-68
2022/11/22 05:33:42;;;;;;;;;;;18.70;63.90;;;;;;5021066;28;899;-68
2022/11/22 05:36:07;;;;;;;;;;;18.70;63.80;;;;;;5033275;28;1352;-69
2022/11/22 05:38:36;;;;;;;;;;;18.70;63.80;;;;;;5035816;28;1379;-69
2022/11/22 05:41:02;;;;;;;;;;;18.70;63.70;;;;;;5020985;28;836;-70
2022/11/22 05:43:28;;;;;;;;;;;18.80;63.70;;;;;;5029878;28;834;-71
2022/11/22 05:45:53;;;;;;;;;;;18.80;63.70;;;;;;5038234;28;844;-71
2022/11/22 05:48:19;;;;;;;;;;;18.80;63.60;;;;;;5041840;28;1272;-69
2022/11/22 05:50:44;;;;;;;;;;;18.80;63.60;;;;;;5020583;28;1922;-69
2022/11/22 05:53:10;;;;;;;;;;;18.80;63.50;;;;;;5037204;28;905;-69
2022/11/22 05:55:35;;;;;;;;;;;18.80;63.50;;;;;;5038740;28;947;-69
2022/11/22 05:58:01;;;;;;;;;;;18.80;63.50;;;;;;5042245;28;1260;-69
2022/11/22 06:00:26;;;;;;;;;;;18.80;64.20;;;;;;5040519;28;854;-68
2022/11/22 06:02:52;;;;;;;;;;;18.80;63.40;;;;;;5035828;28;1365;-69
2022/11/22 06:05:17;;;;;;;;;;;18.80;63.40;;;;;;5023297;28;938;-68
2022/11/22 06:07:43;;;;;;;;;;;18.90;63.50;;;;;;5037108;28;1293;-68
2022/11/22 06:10:09;;;;;;;;;;;18.90;63.40;;;;;;5035743;28;1950;-70
2022/11/22 06:12:34;;;;;;;;;;;18.90;63.40;;;;;;5036535;28;946;-70
2022/11/22 06:15:00;;;;;;;;;;;18.90;63.40;;;;;;5021425;28;1442;-70
2022/11/22 06:17:25;;;;;;;;;;;18.90;63.30;;;;;;5040324;28;1350;-68
2022/11/22 06:19:50;;;;;;;;;;;18.90;63.30;;;;;;5038906;28;909;-70
2022/11/22 06:22:16;;;;;;;;;;;18.90;63.30;;;;;;5036215;28;1693;-68
2022/11/22 06:24:41;;;;;;;;;;;18.90;63.30;;;;;;5035226;28;1364;-67
2022/11/22 06:27:07;;;;;;;;;;;18.90;63.30;;;;;;5036537;28;1296;-68
2022/11/22 06:29:33;;;;;;;;;;;18.90;63.20;;;;;;5038359;28;856;-68
2022/11/22 06:31:58;;;;;;;;;;;18.90;63.30;;;;;;5039011;28;1902;-67
2022/11/22 06:34:24;;;;;;;;;;;18.90;63.30;;;;;;5035786;28;1018;-68
2022/11/22 06:36:50;;;;;;;;;;;18.90;63.30;;;;;;5033417;28;1276;-68
2022/11/22 06:39:15;;;;;;;;;;;18.90;63.30;;;;;;5034678;28;966;-69
2022/11/22 06:41:41;;;;;;;;;;;18.90;63.30;;;;;;5040638;28;865;-68
2022/11/22 06:44:06;;;;;;;;;;;18.90;63.30;;;;;;5038103;28;1047;-68
2022/11/22 06:46:32;;;;;;;;;;;18.90;63.60;;;;;;5035575;28;1287;-68
2022/11/22 06:48:57;;;;;;;;;;;18.90;63.40;;;;;;5039181;28;1273;-68
2022/11/22 06:51:23;;;;;;;;;;;18.90;63.50;;;;;;5023489;28;1965;-67
2022/11/22 06:53:49;;;;;;;;;;;18.90;63.40;;;;;;5038768;28;907;-67
2022/11/22 06:56:21;;;;;;;;;;;18.90;63.40;;;;;;5036716;28;889;-67
2022/11/22 06:58:46;;;;;;;;;;;18.90;63.40;;;;;;5037161;28;1293;-67
2022/11/22 07:01:13;;;;;;;;;;;18.80;63.40;;;;;;5036987;28;896;-67
2022/11/22 07:03:39;;;;;;;;;;;18.80;63.40;;;;;;5035064;28;1377;-67
2022/11/22 07:06:05;;;;;;;;;;;18.80;63.40;;;;;;5032682;28;922;-67
2022/11/22 07:08:30;;;;;;;;;;;18.80;63.50;;;;;;5021094;28;1261;-67
2022/11/22 07:11:02;;;;;;;;;;;18.80;63.50;;;;;;5036762;28;1962;-67
2022/11/22 07:13:27;;;;;;;;;;;18.80;63.50;;;;;;5036176;28;1387;-67
2022/11/22 07:15:54;;;;;;;;;;;18.80;63.60;;;;;;5034723;28;827;-67
2022/11/22 07:18:19;;;;;;;;;;;18.80;63.60;;;;;;5034227;28;1291;-67
2022/11/22 07:20:45;;;;;;;;;;;18.80;63.70;;;;;;5041875;28;930;-67
2022/11/22 07:23:11;;;;;;;;;;;18.80;63.70;;;;;;5042600;28;882;-67
2022/11/22 07:25:37;;;;;;;;;;;18.80;63.70;;;;;;5041882;28;886;-69
2022/11/22 07:28:02;;;;;;;;;;;18.80;63.70;;;;;;5040943;28;1284;-67
2022/11/22 07:30:28;;;;;;;;;;;18.80;63.70;;;;;;5038891;28;1902;-67
2022/11/22 07:32:53;;;;;;;;;;;18.80;63.80;;;;;;5040822;28;917;-67
2022/11/22 07:35:19;;;;;;;;;;;18.70;63.70;;;;;;5039952;28;939;-67
2022/11/22 07:37:45;;;;;;;;;;;18.80;63.80;;;;;;5038895;28;1204;-68
2022/11/22 07:40:11;;;;;;;;;;;18.80;63.90;;;;;;5040847;28;823;-68
2022/11/22 07:42:36;;;;;;;;;;;18.70;63.80;;;;;;5038515;28;1642;-68
2022/11/22 07:45:01;;;;;;;;;;;18.70;63.80;;;;;;5038277;28;859;-67
2022/11/22 07:47:27;;;;;;;;;;;18.70;63.80;;;;;;5042031;28;1339;-69
2022/11/22 07:49:52;;;;;;;;;;;18.70;63.90;;;;;;5041371;28;2001;-69
2022/11/22 07:52:18;;;;;;;;;;;18.70;63.90;;;;;;5041138;28;879;-69
2022/11/22 07:54:43;;;;;;;;;;;18.70;63.90;;;;;;5040346;28;891;-68
2022/11/22 07:57:09;;;;;;;;;;;18.70;64.00;;;;;;5037112;28;1308;-68
2022/11/22 07:59:34;;;;;;;;;;;18.70;64.00;;;;;;5042098;28;863;-67
2022/11/22 08:02:01;;;;;;;;;;;18.70;64.00;;;;;;5039792;28;1387;-67
2022/11/22 08:04:27;;;;;;;;;;;18.70;64.00;;;;;;5039898;28;1180;-69
2022/11/22 08:06:52;;;;;;;;;;;18.70;64.00;;;;;;5037606;28;1351;-69
2022/11/22 08:09:17;;;;;;;;;;;18.70;64.00;;;;;;5043342;28;879;-69
2022/11/22 08:11:43;;;;;;;;;;;18.60;63.90;;;;;;5040143;28;1907;-69
2022/11/22 08:14:09;;;;;;;;;;;18.70;64.00;;;;;;5039977;28;1369;-69
2022/11/22 08:16:35;;;;;;;;;;;18.70;64.00;;;;;;5040744;28;899;-69
2022/11/22 08:19:00;;;;;;;;;;;18.70;64.00;;;;;;5039507;28;1166;-70
2022/11/22 08:21:25;;;;;;;;;;;18.70;64.00;;;;;;5044532;28;931;-69
2022/11/22 08:23:51;;;;;;;;;;;18.70;63.90;;;;;;5039427;28;879;-68
2022/11/22 08:26:17;;;;;;;;;;;18.70;63.90;;;;;;5011482;28;4795;-68
2022/11/22 08:28:42;;;;;;;;;;;18.70;63.90;;;;;;5038552;28;2003;-67
2022/11/22 08:31:09;;;;;;;;;;;18.70;63.80;;;;;;5038666;28;1911;-68
2022/11/22 08:33:34;;;;;;;;;;;18.70;63.80;;;;;;5042980;28;1490;-67
2022/11/22 08:36:00;;;;;;;;;;;18.70;63.80;;;;;;5038463;28;1043;-67
2022/11/22 08:38:25;;;;;;;;;;;18.70;63.80;;;;;;5038162;28;1399;-66
2022/11/22 08:40:51;;;;;;;;;;;18.80;63.80;;;;;;5040395;28;844;-67
2022/11/22 08:43:16;;;;;;;;;;;18.80;63.80;;;;;;5041441;28;942;-67
2022/11/22 08:45:42;;;;;;;;;;;18.70;63.70;;;;;;5041581;28;983;-68
2022/11/22 08:48:07;;;;;;;;;;;18.80;63.80;;;;;;5037263;28;1272;-67
2022/11/22 08:50:33;;;;;;;;;;;18.80;63.80;;;;;;5039901;28;1981;-67
2022/11/22 08:53:01;;;;;;;;;;;18.80;63.70;;;;;;5037588;28;875;-68
2022/11/22 08:55:27;;;;;;;;;;;18.80;63.70;;;;;;5036159;28;847;-67
2022/11/22 08:57:56;;;;;;;;;;;18.80;63.60;;;;;;5036331;28;1362;-67
2022/11/22 09:00:22;;;;;;;;;;;18.80;63.60;;;;;;5036431;28;859;-67
2022/11/22 09:02:47;;;;;;;;;;;18.80;63.50;;;;;;5039949;28;1255;-68
2022/11/22 09:05:12;;;;;;;;;;;18.80;63.50;;;;;;5038318;28;806;-67
2022/11/22 09:07:38;;;;;;;;;;;18.80;63.50;;;;;;5038353;28;1282;-67
2022/11/22 09:10:06;;;;;;;;;;;18.80;63.50;;;;;;5040396;28;1898;-67
2022/11/22 09:12:32;;;;;;;;;;;18.80;63.50;;;;;;5040957;28;885;-67
2022/11/22 09:14:58;;;;;;;;;;;18.80;63.40;;;;;;5041466;28;1387;-67
2022/11/22 09:17:23;;;;;;;;;;;18.80;63.40;;;;;;5035676;28;1265;-67
2022/11/22 09:19:49;;;;;;;;;;;18.80;63.40;;;;;;5039525;28;971;-67
2022/11/22 09:22:14;;;;;;;;;;;18.80;63.40;;;;;;5039665;28;840;-68
2022/11/22 09:24:39;;;;;;;;;;;18.80;63.40;;;;;;5037484;28;1100;-68
2022/11/22 09:27:05;;;;;;;;;;;18.80;63.30;;;;;;5036258;28;1328;-65
2022/11/22 09:29:31;;;;;;;;;;;18.90;63.40;;;;;;5038127;28;871;-67
2022/11/22 09:31:56;;;;;;;;;;;18.90;63.40;;;;;;5039259;28;1973;-68
2022/11/22 09:34:22;;;;;;;;;;;18.90;63.40;;;;;;5036280;28;854;-66
2022/11/22 09:36:47;;;;;;;;;;;18.90;63.30;;;;;;5041472;28;1266;-66
2022/11/22 09:39:12;;;;;;;;;;;18.90;63.30;;;;;;5035554;28;1042;-65
2022/11/22 09:41:38;;;;;;;;;;;18.90;63.30;;;;;;5038770;28;1219;-68
2022/11/22 09:44:03;;;;;;;;;;;18.90;63.20;;;;;;5040788;28;836;-68
2022/11/22 09:46:29;;;;;;;;;;;18.90;63.20;;;;;;5034600;28;838;-67
2022/11/22 09:49:04;;;;;;;;;;;18.90;63.20;;;;;;5039015;28;1370;-67
2022/11/22 09:51:35;;;;;;;;;;;18.90;63.20;;;;;;5029810;28;1961;-67
2022/11/22 09:54:06;;;;;;;;;;;18.90;63.20;;;;;;5038255;28;1038;-67
2022/11/22 09:56:31;;;;;;;;;;;18.90;63.10;;;;;;5036575;28;950;-66
2022/11/22 09:58:58;;;;;;;;;;;18.90;63.90;;;;;;5035646;28;1264;-68
2022/11/22 10:01:29;;;;;;;;;;;18.90;63.10;;;;;;5018367;28;906;-68
2022/11/22 10:04:09;;;;;;;;;;;19.00;63.20;;;;;;5028912;28;2005;-67
2022/11/22 10:06:36;;;;;;;;;;;18.90;63.10;;;;;;5022956;28;965;-70
2022/11/22 10:09:20;;;;;;;;;;;18.90;63.10;;;;;;5038896;28;1187;-67
2022/11/22 10:11:47;;;;;;;;;;;18.90;63.10;;;;;;5038877;28;1898;-65
2022/11/22 10:14:15;;;;;;;;;;;18.90;63.10;;;;;;5024275;28;1181;-66
2022/11/22 10:16:43;;;;;;;;;;;18.90;63.20;;;;;;5039888;28;899;-65
2022/11/22 10:19:15;;;;;;;;;;;18.90;63.10;;;;;;5022593;28;1078;-66
2022/11/22 10:21:41;;;;;;;;;;;18.90;63.20;;;;;;5018047;28;990;-65
2022/11/22 10:24:10;;;;;;;;;;;18.90;63.20;;;;;;5029812;28;825;-65
2022/11/22 10:26:35;;;;;;;;;;;18.90;63.20;;;;;;5029710;28;879;-68
2022/11/22 10:29:03;;;;;;;;;;;18.90;63.20;;;;;;5039946;28;1355;-68
2022/11/22 10:31:31;;;;;;;;;;;18.90;63.20;;;;;;5039354;28;1973;-67
2022/11/22 10:33:57;;;;;;;;;;;18.90;63.20;;;;;;5036034;28;998;-67
2022/11/22 10:36:28;;;;;;;;;;;18.90;63.20;;;;;;5037130;28;902;-68
2022/11/22 10:39:12;;;;;;;;;;;18.90;63.10;;;;;;5035671;28;1339;-67
2022/11/22 10:41:47;;;;;;;;;;;18.90;63.20;;;;;;5037436;28;786;-68
2022/11/22 10:44:12;;;;;;;;;;;18.90;63.10;;;;;;5022242;28;904;-67
2022/11/22 10:46:38;;;;;;;;;;;18.90;63.10;;;;;;5041061;28;882;-67
2022/11/22 10:49:18;;;;;;;;;;;18.90;63.10;;;;;;5040648;28;1244;-67
2022/11/22 10:51:47;;;;;;;;;;;18.90;63.10;;;;;;5039590;28;1902;-69
2022/11/22 10:54:33;;;;;;;;;;;18.90;63.10;;;;;;5043717;28;852;-67
2022/11/22 10:57:11;;;;;;;;;;;18.90;63.10;;;;;;5045155;28;1284;-69
2022/11/22 10:59:36;;;;;;;;;;;18.90;63.10;;;;;;5044226;28;879;-67
2022/11/22 11:02:09;;;;;;;;;;;18.90;63.10;;;;;;5048238;28;1274;-67
2022/11/22 11:04:35;;;;;;;;;;;18.90;63.10;;;;;;5024479;28;832;-67
2022/11/22 11:07:01;;;;;;;;;;;18.90;63.10;;;;;;5024789;28;1257;-68
2022/11/22 11:09:26;;;;;;;;;;;18.90;63.00;;;;;;5034918;28;955;-67
2022/11/22 11:11:52;;;;;;;;;;;18.90;63.00;;;;;;5039892;28;1961;-68
2022/11/22 11:14:28;;;;;;;;;;;19.00;63.10;;;;;;5039516;28;952;-67
2022/11/22 11:16:54;;;;;;;;;;;18.90;63.00;;;;;;5026765;28;1229;-68
2022/11/22 11:19:20;;;;;;;;;;;19.00;63.00;;;;;;5042785;28;889;-67
2022/11/22 11:21:48;;;;;;;;;;;19.00;63.10;;;;;;5021290;28;868;-67
2022/11/22 11:24:14;;;;;;;;;;;19.00;63.10;;;;;;5043684;28;1014;-68
2022/11/22 11:26:40;;;;;;;;;;;19.00;63.00;;;;;;5041068;28;880;-68
2022/11/22 11:29:18;;;;;;;;;;;19.00;63.00;;;;;;5039858;28;1261;-67
2022/11/22 11:31:47;;;;;;;;;;;19.00;63.10;;;;;;5040887;28;1890;-67
2022/11/22 11:34:19;;;;;;;;;;;19.00;63.00;;;;;;5038833;28;919;-69
2022/11/22 11:36:45;;;;;;;;;;;19.00;63.00;;;;;;5035087;28;4567;-68
2022/11/22 11:39:20;;;;;;;;;;;19.00;63.00;;;;;;5041795;28;914;-68
2022/11/22 11:41:46;;;;;;;;;;;19.00;63.00;;;;;;5029588;28;1430;-70
2022/11/22 11:44:31;;;;;;;;;;;19.00;63.00;;;;;;5041762;28;877;-70
2022/11/22 11:46:57;;;;;;;;;;;19.00;63.00;;;;;;5037951;28;1859;-71
2022/11/22 11:49:24;;;;;;;;;;;19.00;63.00;;;;;;5040296;28;982;-70
2022/11/22 11:51:55;;;;;;;;;;;19.00;63.00;;;;;;5023537;28;1910;-70
2022/11/22 11:54:27;;;;;;;;;;;19.00;63.00;;;;;;5039211;28;824;-70
2022/11/22 11:56:56;;;;;;;;;;;19.00;63.00;;;;;;5036607;28;1285;-70
2022/11/22 11:59:22;;;;;;;;;;;19.00;63.00;;;;;;5040694;28;840;-70
2022/11/22 12:01:52;;;;;;;;;;;19.00;63.00;;;;;;5032127;28;1002;-69
2022/11/22 12:04:19;;;;;;;;;;;19.00;63.00;;;;;;5022208;28;930;-69
2022/11/22 12:06:51;;;;;;;;;;;19.00;63.00;;;;;;5037627;28;1359;-70
2022/11/22 12:09:25;;;;;;;;;;;19.00;63.00;;;;;;5037240;28;1010;-69
2022/11/22 12:11:51;;;;;;;;;;;19.00;63.00;;;;;;5022762;28;1902;-69
2022/11/22 12:14:16;;;;;;;;;;;19.00;63.00;;;;;;5036483;28;1417;-69
2022/11/22 12:16:43;;;;;;;;;;;19.00;63.50;;;;;;5037556;28;1608;-69
2022/11/22 12:19:17;;;;;;;;;;;19.00;63.00;;;;;;5040452;28;888;-69
2022/11/22 12:21:48;;;;;;;;;;;19.00;63.00;;;;;;5039347;28;904;-69
2022/11/22 12:24:23;;;;;;;;;;;19.00;63.00;;;;;;5036911;28;808;-69
2022/11/22 12:26:48;;;;;;;;;;;19.00;63.00;;;;;;5038118;28;1381;-70
2022/11/22 12:29:14;;;;;;;;;;;19.00;63.00;;;;;;5043682;28;852;-70
2022/11/22 12:31:44;;;;;;;;;;;19.00;63.00;;;;;;5039282;28;2012;-70
2022/11/22 12:34:13;;;;;;;;;;;19.00;63.00;;;;;;5022625;28;981;-69
2022/11/22 12:36:41;;;;;;;;;;;19.00;63.00;;;;;;5039223;28;1026;-71
2022/11/22 12:39:07;;;;;;;;;;;19.00;63.10;;;;;;5040466;28;1342;-69
2022/11/22 12:41:33;;;;;;;;;;;19.00;63.10;;;;;;5038777;28;884;-69
2022/11/22 12:43:59;;;;;;;;;;;19.00;63.10;;;;;;5031310;28;890;-70
2022/11/22 12:46:28;;;;;;;;;;;19.00;63.10;;;;;;5020579;28;836;-70
2022/11/22 12:48:54;;;;;;;;;;;19.00;63.10;;;;;;5040248;28;1455;-69
2022/11/22 12:51:25;;;;;;;;;;;18.90;63.10;;;;;;5038141;28;1984;-70
2022/11/22 12:53:50;;;;;;;;;;;18.90;63.10;;;;;;5041534;28;939;-70
2022/11/22 12:56:29;;;;;;;;;;;18.90;63.10;;;;;;5040068;28;831;-69
2022/11/22 12:59:05;;;;;;;;;;;19.00;63.20;;;;;;5021738;28;1328;-69
2022/11/22 13:01:30;;;;;;;;;;;18.90;63.20;;;;;;5038408;28;2151;-69
2022/11/22 13:04:05;;;;;;;;;;;18.90;63.10;;;;;;5040446;28;1293;-70
2022/11/22 13:06:32;;;;;;;;;;;18.90;63.10;;;;;;5037013;28;1343;-69
2022/11/22 13:09:00;;;;;;;;;;;18.90;63.10;;;;;;5039070;28;1359;-68
2022/11/22 13:11:28;;;;;;;;;;;19.00;63.20;;;;;;5027735;28;1902;-70
2022/11/22 13:14:05;;;;;;;;;;;18.90;63.20;;;;;;5030783;28;1542;-69
2022/11/22 13:16:31;;;;;;;;;;;18.90;63.20;;;;;;5024652;28;879;-70
2022/11/22 13:18:57;;;;;;;;;;;18.90;63.10;;;;;;5040290;28;1173;-70
2022/11/22 13:21:33;;;;;;;;;;;18.90;63.20;;;;;;5038015;28;917;-70
2022/11/22 13:24:17;;;;;;;;;;;18.90;63.20;;;;;;5042504;28;824;-70
2022/11/22 13:26:46;;;;;;;;;;;18.90;63.20;;;;;;5039372;28;1232;-71
2022/11/22 13:29:18;;;;;;;;;;;18.90;63.20;;;;;;5039594;28;812;-70
2022/11/22 13:31:59;;;;;;;;;;;18.90;63.20;;;;;;5038192;28;1957;-70
2022/11/22 13:34:25;;;;;;;;;;;18.90;63.20;;;;;;5025109;28;879;-70
2022/11/22 13:36:51;;;;;;;;;;;18.90;63.70;;;;;;5036429;28;1192;-70
2022/11/22 13:39:17;;;;;;;;;;;19.00;63.60;;;;;;5038278;28;911;-69
2022/11/22 13:41:52;;;;;;;;;;;19.00;63.40;;;;;;5025327;28;824;-69
2022/11/22 13:44:21;;;;;;;;;;;19.00;63.30;;;;;;5036977;28;866;-70
2022/11/22 13:46:49;;;;;;;;;;;18.90;63.20;;;;;;5037081;28;1291;-70
2022/11/22 13:49:29;;;;;;;;;;;18.90;63.30;;;;;;5040223;28;939;-70
2022/11/22 13:51:55;;;;;;;;;;;18.90;63.30;;;;;;5039717;28;1938;-70
2022/11/22 13:54:44;;;;;;;;;;;18.90;63.40;;;;;;5019084;28;911;-70
2022/11/22 13:57:28;;;;;;;;;;;18.90;63.40;;;;;;5010782;28;1306;-70
2022/11/22 14:02:41;;;;;;;;;;;18.90;63.50;;;;;;5036730;28;1255;-70
2022/11/22 14:05:16;;;;;;;;;;;18.90;63.50;;;;;;5035674;28;998;-70
2022/11/22 14:07:41;;;;;;;;;;;18.90;63.50;;;;;;5023833;28;1201;-70
2022/11/22 14:10:39;;;;;;;;;;;18.90;63.50;;;;;;5035499;28;1953;-69
2022/11/22 14:13:10;;;;;;;;;;;18.80;63.50;;;;;;5006581;28;1190;-70
2022/11/22 14:15:54;;;;;;;;;;;18.90;63.60;;;;;;5022722;28;931;-70
2022/11/22 14:18:32;;;;;;;;;;;18.80;63.50;;;;;;5037152;28;1276;-70
2022/11/22 14:21:01;;;;;;;;;;;18.80;63.60;;;;;;5038011;28;1169;-70
2022/11/22 14:23:42;;;;;;;;;;;18.80;63.60;;;;;;5040114;28;1148;-69
2022/11/22 14:26:15;;;;;;;;;;;18.80;63.60;;;;;;5038410;28;1176;-69
2022/11/22 14:28:46;;;;;;;;;;;18.80;63.60;;;;;;5019309;28;1431;-69
2022/11/22 14:31:22;;;;;;;;;;;18.80;63.60;;;;;;5043689;28;1906;-67
2022/11/22 14:34:06;;;;;;;;;;;18.80;63.60;;;;;;5027351;28;1522;-68
2022/11/22 14:36:32;;;;;;;;;;;18.80;63.70;;;;;;5042751;28;1375;-68
2022/11/22 14:38:57;;;;;;;;;;;18.80;63.70;;;;;;5042787;28;1379;-69
2022/11/22 14:41:29;;;;;;;;;;;18.80;63.70;;;;;;5042818;28;1296;-69
2022/11/22 14:44:02;;;;;;;;;;;18.80;63.70;;;;;;5044242;28;1391;-70
2022/11/22 14:46:30;;;;;;;;;;;18.80;63.70;;;;;;5021486;28;1304;-69
2022/11/22 14:48:58;;;;;;;;;;;18.80;63.80;;;;;;5042463;28;1335;-68
2022/11/22 14:51:24;;;;;;;;;;;18.80;63.80;;;;;;5041552;28;1963;-69
2022/11/22 14:53:59;;;;;;;;;;;18.80;63.80;;;;;;5030527;28;1350;-69